Time;durP1;ratioP1;P1;durP2;ratioP2;P2;SDS_P1;SDS_P2;PMS_P1;PMS_P2;Temp;Humidity;BMP_temperature;BMP_pressure;BME280_temperature;BME280_humidity;BME280_pressure;Samples;Min_cycle;Max_cycle;Signal;HPM_P1;HPM_P2
2022/08/16 00:00:39;;;;;;;17.50;15.52;;;;;;;22.27;62.64;98778.47;5052076;28;20024;-76
2022/08/16 00:03:06;;;;;;;20.90;15.60;;;;;;;21.93;63.74;98781.47;5033660;28;20048;-76
2022/08/16 00:05:32;;;;;;;19.08;15.65;;;;;;;22.14;62.86;98783.19;5051930;28;20383;-76
2022/08/16 00:07:58;;;;;;;15.60;13.75;;;;;;;22.08;62.77;98788.56;5051682;28;20029;-76
2022/08/16 00:10:25;;;;;;;16.98;14.55;;;;;;;22.11;62.90;98773.44;5051118;28;20056;-76
2022/08/16 00:12:51;;;;;;;17.77;14.68;;;;;;;22.15;62.11;98762.00;5051406;28;20025;-76
2022/08/16 00:15:31;;;;;;;16.52;13.25;;;;;;;22.14;62.49;98778.31;5051841;28;20117;-76
2022/08/16 00:17:57;;;;;;;18.92;14.40;;;;;;;22.01;62.11;98780.94;5051114;28;20029;-76
2022/08/16 00:20:23;;;;;;;15.35;13.57;;;;;;;21.85;62.08;98772.25;5033712;28;20028;-76
2022/08/16 00:22:50;;;;;;;20.85;13.38;;;;;;;21.90;61.88;98779.47;5033829;28;20032;-76
2022/08/16 00:25:18;;;;;;;14.10;12.60;;;;;;;21.97;62.00;98794.41;5051387;28;20032;-76
2022/08/16 00:27:44;;;;;;;18.05;14.05;;;;;;;21.83;62.09;98784.03;5051207;28;20104;-76
2022/08/16 00:30:13;;;;;;;17.23;14.02;;;;;;;21.90;62.24;98803.06;5051390;28;20103;-76
2022/08/16 00:32:41;;;;;;;17.25;13.68;;;;;;;21.63;63.22;98803.81;5051490;28;20112;-76
2022/08/16 00:35:10;;;;;;;21.75;13.70;;;;;;;21.77;63.11;98804.88;5051535;28;20082;-76
2022/08/16 00:37:36;;;;;;;21.38;15.15;;;;;;;21.60;63.12;98794.06;5051235;28;20029;-76
2022/08/16 00:40:05;;;;;;;19.38;14.60;;;;;;;21.53;63.79;98801.91;5051189;28;20067;-76
2022/08/16 00:42:31;;;;;;;18.23;14.18;;;;;;;21.67;63.11;98804.59;5031191;28;20089;-76
2022/08/16 00:45:01;;;;;;;24.33;14.48;;;;;;;21.42;64.05;98800.00;5031540;28;20476;-76
2022/08/16 00:47:27;;;;;;;17.40;15.02;;;;;;;21.42;64.18;98797.16;5036993;28;20079;-76
2022/08/16 00:49:54;;;;;;;15.73;14.13;;;;;;;21.72;64.20;98803.31;5033444;28;20013;-76
2022/08/16 00:52:19;;;;;;;16.05;14.20;;;;;;;21.78;64.59;98809.34;5033342;28;20116;-76
2022/08/16 00:54:45;;;;;;;16.55;13.93;;;;;;;22.00;63.78;98804.94;5033331;28;20521;-76
2022/08/16 00:57:12;;;;;;;22.00;14.57;;;;;;;22.08;63.94;98801.97;5032859;28;20582;-76
2022/08/16 00:59:39;;;;;;;20.98;14.88;;;;;;;22.11;63.83;98803.97;5033234;28;20083;-76
2022/08/16 01:02:07;;;;;;;17.10;14.25;;;;;;;22.19;63.59;98794.06;5051352;28;20123;-76
2022/08/16 01:04:34;;;;;;;19.05;14.75;;;;;;;22.25;63.08;98803.75;5051347;28;20052;-76
2022/08/16 01:07:03;;;;;;;18.15;16.15;;;;;;;22.15;63.51;98791.28;5051489;28;20031;-76
2022/08/16 01:09:34;;;;;;;22.30;17.23;;;;;;;22.15;63.34;98787.63;5051240;28;20024;-76
2022/08/16 01:12:03;;;;;;;19.90;15.55;;;;;;;22.14;63.03;98791.72;5050705;28;20040;-76
2022/08/16 01:14:38;;;;;;;23.17;16.35;;;;;;;22.16;62.72;98795.75;5033219;28;20446;-76
2022/08/16 01:17:04;;;;;;;23.60;17.15;;;;;;;21.23;65.58;98797.78;5050955;28;20368;-76
2022/08/16 01:19:34;;;;;;;23.65;17.63;;;;;;;20.82;67.12;98803.13;5050956;28;20028;-76
2022/08/16 01:22:25;;;;;;;21.73;16.58;;;;;;;20.67;67.89;98807.31;5051182;28;20056;-76
2022/08/16 01:24:57;;;;;;;23.92;17.55;;;;;;;20.77;67.75;98806.41;5049535;28;20025;-76
2022/08/16 01:27:57;;;;;;;24.10;17.13;;;;;;;21.26;66.57;98808.34;5032663;28;20021;-76
2022/08/16 01:30:24;;;;;;;;;;;;;;;21.52;65.73;98803.94;5008824;28;20044;-76
2022/08/16 01:32:52;;;;;;;21.58;16.70;;;;;;;21.59;65.74;98803.03;5051083;28;20374;-76
2022/08/16 01:35:27;;;;;;;19.55;15.70;;;;;;;21.20;66.13;98813.69;5034590;28;20032;-76
2022/08/16 01:37:54;;;;;;;21.90;17.20;;;;;;;20.66;67.77;98805.69;5054611;28;20052;-76
2022/08/16 01:40:25;;;;;;;23.33;17.92;;;;;;;20.53;68.44;98811.06;5018198;28;20115;-76
2022/08/16 01:42:52;;;;;;;20.92;18.02;;;;;;;20.26;69.69;98811.69;5016762;28;20096;-76
2022/08/16 01:45:18;;;;;;;21.00;16.80;;;;;;;20.41;69.78;98818.09;5034656;28;20036;-76
2022/08/16 01:47:46;;;;;;;21.75;17.15;;;;;;;20.36;70.10;98827.03;5034523;28;20025;-76
2022/08/16 01:50:11;;;;;;;25.33;19.48;;;;;;;20.22;70.22;98830.81;5016723;28;20013;-76
2022/08/16 01:52:38;;;;;;;30.20;18.88;;;;;;;19.91;71.50;98826.50;5016290;28;20106;-75
2022/08/16 01:55:05;;;;;;;31.23;19.85;;;;;;;19.87;72.17;98825.72;5014505;28;20025;-76
2022/08/16 01:57:31;;;;;;;24.60;19.20;;;;;;;19.99;72.34;98835.78;5034236;28;20507;-76
2022/08/16 01:59:56;;;;;;;23.15;18.00;;;;;;;19.63;73.46;98827.47;5016242;28;20026;-76
2022/08/16 02:02:23;;;;;;;26.02;19.15;;;;;;;19.73;73.75;98832.28;5034121;28;20066;-76
2022/08/16 02:04:49;;;;;;;26.20;19.92;;;;;;;19.93;72.37;98823.28;5033809;28;20032;-76
2022/08/16 02:07:17;;;;;;;23.52;16.98;;;;;;;20.15;71.52;98823.13;5034305;28;20147;-76
2022/08/16 02:09:44;;;;;;;22.58;18.25;;;;;;;20.27;71.05;98825.50;5033288;28;20083;-76
2022/08/16 02:12:10;;;;;;;24.25;18.33;;;;;;;20.51;69.82;98839.09;5016114;28;20029;-76
2022/08/16 02:14:36;;;;;;;23.20;17.42;;;;;;;20.65;69.42;98829.66;5033767;28;20381;-76
2022/08/16 02:17:04;;;;;;;26.42;17.40;;;;;;;20.88;68.91;98837.56;5033725;28;20111;-76
2022/08/16 02:19:32;;;;;;;24.80;17.30;;;;;;;20.95;68.42;98831.00;5033708;28;20420;-76
2022/08/16 02:22:00;;;;;;;23.98;17.55;;;;;;;20.99;68.08;98835.44;5033554;28;20021;-76
2022/08/16 02:24:26;;;;;;;20.33;16.27;;;;;;;21.15;67.52;98837.69;5014689;28;20040;-76
2022/08/16 02:26:51;;;;;;;25.10;18.90;;;;;;;21.13;67.35;98831.63;5033424;28;20106;-76
2022/08/16 02:29:18;;;;;;;24.88;17.55;;;;;;;21.15;67.59;98837.69;5015978;28;20108;-76
2022/08/16 02:31:49;;;;;;;23.38;16.88;;;;;;;21.01;68.20;98844.34;5033823;28;20369;-76
2022/08/16 02:34:16;;;;;;;33.30;18.90;;;;;;;20.63;69.30;98832.91;5015611;28;20464;-76
2022/08/16 02:36:41;;;;;;;25.15;17.08;;;;;;;20.85;68.92;98842.06;5033114;28;20025;-76
2022/08/16 02:39:09;;;;;;;32.60;17.42;;;;;;;20.93;68.07;98831.41;5014775;28;20041;-76
2022/08/16 02:41:36;;;;;;;24.60;16.30;;;;;;;20.92;67.75;98829.81;5004048;28;20060;-76
2022/08/16 02:44:03;;;;;;;23.95;15.70;;;;;;;20.97;67.44;98837.06;5029999;28;20021;-76
2022/08/16 02:46:28;;;;;;;19.65;16.08;;;;;;;21.00;67.52;98833.41;5032995;28;20105;-76
2022/08/16 02:48:54;;;;;;;23.83;16.45;;;;;;;21.10;67.38;98828.81;5015539;28;20450;-76
2022/08/16 02:51:19;;;;;;;24.92;15.68;;;;;;;21.19;67.06;98826.28;5015722;28;20144;-76
2022/08/16 02:53:47;;;;;;;25.60;16.23;;;;;;;20.83;68.81;98833.16;5033154;28;20025;-76
2022/08/16 02:56:14;;;;;;;21.85;16.85;;;;;;;20.93;68.65;98842.78;5016732;28;20034;-76
2022/08/16 02:58:40;;;;;;;31.70;18.73;;;;;;;20.46;70.38;98832.66;5013395;28;20037;-76
2022/08/16 03:01:06;;;;;;;22.52;17.25;;;;;;;20.68;69.54;98843.78;5015385;28;20061;-76
2022/08/16 03:03:33;;;;;;;24.10;18.63;;;;;;;20.46;70.28;98838.31;5033129;28;20411;-76
2022/08/16 03:05:59;;;;;;;22.98;17.45;;;;;;;20.48;70.18;98840.72;5015170;28;20491;-76
2022/08/16 03:08:24;;;;;;;37.83;20.73;;;;;;;20.26;71.29;98840.09;5015226;28;20033;-76
2022/08/16 03:10:51;;;;;;;67.72;22.08;;;;;;;20.33;71.07;98842.88;5011219;28;20125;-76
2022/08/16 03:13:17;;;;;;;69.07;23.88;;;;;;;20.18;71.18;98859.22;5001348;28;20136;-76
2022/08/16 03:15:44;;;;;;;27.35;19.15;;;;;;;19.74;73.32;98856.59;5032686;28;20037;-76
2022/08/16 03:18:10;;;;;;;31.52;20.13;;;;;;;19.85;72.96;98855.72;5032869;28;20464;-76
2022/08/16 03:20:36;;;;;;;29.50;21.73;;;;;;;19.36;75.14;98864.84;5032456;28;20099;-76
2022/08/16 03:23:02;;;;;;;30.20;21.08;;;;;;;19.14;76.38;98876.22;5014967;28;20039;-76
2022/08/16 03:25:28;;;;;;;33.97;21.80;;;;;;;19.01;75.95;98878.69;5031633;28;20044;-76
2022/08/16 03:27:54;;;;;;;26.75;20.73;;;;;;;19.16;76.01;98873.78;5032615;28;20472;-76
2022/08/16 03:30:25;;;;;;;30.92;20.08;;;;;;;19.13;75.49;98873.81;5014849;28;20083;-76
2022/08/16 03:32:51;;;;;;;24.95;19.92;;;;;;;19.18;75.50;98871.34;5012261;28;20494;-76
2022/08/16 03:35:18;;;;;;;28.48;19.90;;;;;;;19.01;76.21;98877.88;5032068;28;20045;-76
2022/08/16 03:37:45;;;;;;;28.55;20.15;;;;;;;19.07;75.75;98888.38;5032280;28;20083;-76
2022/08/16 03:40:13;;;;;;;40.63;21.52;;;;;;;18.92;76.42;98883.94;5033163;28;20072;-76
2022/08/16 03:42:38;;;;;;;37.08;21.75;;;;;;;18.87;76.89;98887.97;5014461;28;20033;-76
2022/08/16 03:45:04;;;;;;;31.60;22.02;;;;;;;18.67;77.61;98881.94;5044890;28;20028;-76
2022/08/16 03:47:30;;;;;;;31.02;20.75;;;;;;;18.70;77.34;98885.94;5051874;28;20035;-76
2022/08/16 03:49:57;;;;;;;29.33;21.40;;;;;;;18.72;77.19;98881.50;5039575;28;20069;-80
2022/08/16 03:52:24;;;;;;;32.05;21.42;;;;;;;18.97;75.95;98883.50;5056515;28;20033;-87
2022/08/16 03:54:51;;;;;;;36.10;21.42;;;;;;;19.21;75.55;98870.56;5051524;28;20016;-88
2022/08/16 03:57:16;;;;;;;30.38;21.42;;;;;;;19.42;74.42;98885.88;5034092;28;20387;-80
2022/08/16 03:59:43;;;;;;;30.80;19.58;;;;;;;19.68;73.71;98880.13;5050835;28;20025;-76
2022/08/16 04:02:10;;;;;;;38.00;21.55;;;;;;;19.74;72.70;98884.94;5041128;28;20029;-79
2022/08/16 04:04:36;;;;;;;30.15;22.23;;;;;;;19.67;72.83;98887.00;5030822;28;20036;-82
2022/08/16 04:07:03;;;;;;;30.98;22.38;;;;;;;19.70;72.95;98889.03;5012558;28;20029;-74
2022/08/16 04:09:30;;;;;;;40.03;21.75;;;;;;;19.67;72.94;98890.66;5031182;28;20100;-75
2022/08/16 04:11:55;;;;;;;57.85;23.80;;;;;;;19.75;72.97;98897.13;5040104;28;20037;-76
2022/08/16 04:14:21;;;;;;;28.60;20.73;;;;;;;19.58;73.01;98898.81;5026059;28;20045;-74
2022/08/16 04:16:46;;;;;;;54.95;22.33;;;;;;;19.58;73.08;98888.25;5049553;28;20096;-74
2022/08/16 04:19:12;;;;;;;36.85;22.70;;;;;;;19.64;73.08;98897.16;5050968;28;20403;-74
2022/08/16 04:21:38;;;;;;;32.55;21.15;;;;;;;19.62;73.17;98894.75;5051542;28;20029;-74
2022/08/16 04:24:04;;;;;;;35.33;21.05;;;;;;;19.58;72.99;98904.47;5050008;28;20065;-74
2022/08/16 04:26:30;;;;;;;31.65;20.40;;;;;;;19.51;73.65;98916.66;5033380;28;20033;-74
2022/08/16 04:28:55;;;;;;;26.08;19.98;;;;;;;19.54;73.45;98907.31;5033930;28;20108;-74
2022/08/16 04:31:21;;;;;;;28.67;20.33;;;;;;;19.53;73.82;98910.56;5032212;28;20063;-74
2022/08/16 04:33:47;;;;;;;43.10;20.40;;;;;;;19.40;74.57;98915.88;5051109;28;20487;-74
2022/08/16 04:36:12;;;;;;;27.45;20.52;;;;;;;19.34;75.17;98909.81;5032768;28;20075;-74
2022/08/16 04:38:38;;;;;;;28.30;19.80;;;;;;;19.36;74.91;98904.53;5032775;28;20052;-75
2022/08/16 04:41:03;;;;;;;38.95;20.80;;;;;;;19.45;74.28;98901.25;5049763;28;20102;-74
2022/08/16 04:43:29;;;;;;;52.65;22.83;;;;;;;19.45;74.80;98895.59;5051183;28;20025;-74
2022/08/16 04:45:55;;;;;;;30.90;20.33;;;;;;;19.64;75.24;98897.16;5051205;28;20545;-74
2022/08/16 04:48:20;;;;;;;29.08;19.25;;;;;;;19.85;73.68;98899.09;5051198;28;20078;-74
2022/08/16 04:50:47;;;;;;;34.50;20.05;;;;;;;19.96;73.07;98895.41;5033219;28;20025;-74
2022/08/16 04:53:13;;;;;;;32.83;21.38;;;;;;;19.97;73.81;98892.16;5033183;28;20450;-74
2022/08/16 04:55:39;;;;;;;26.92;20.63;;;;;;;20.25;73.13;98901.72;5050449;28;20033;-74
2022/08/16 04:58:06;;;;;;;26.38;19.23;;;;;;;20.52;71.72;98898.34;5051067;28;20079;-75
2022/08/16 05:00:33;;;;;;;35.47;20.02;;;;;;;20.88;70.58;98902.94;5033686;28;20021;-75
2022/08/16 05:03:03;;;;;;;39.90;20.38;;;;;;;21.08;70.26;98903.16;5050478;28;20029;-75
2022/08/16 05:05:29;;;;;;;32.15;19.85;;;;;;;21.35;69.34;98913.06;5033281;28;20140;-75
2022/08/16 05:07:54;;;;;;;44.95;20.85;;;;;;;21.42;68.37;98908.09;5050868;28;20025;-74
2022/08/16 05:10:20;;;;;;;28.55;19.60;;;;;;;21.53;67.63;98904.31;5034398;28;20025;-75
2022/08/16 05:12:46;;;;;;;61.95;21.85;;;;;;;21.53;67.82;98902.28;5036674;28;20415;-75
2022/08/16 05:15:12;;;;;;;45.78;19.67;;;;;;;21.79;67.34;98908.53;5035103;28;20024;-75
2022/08/16 05:17:38;;;;;;;29.65;18.95;;;;;;;21.88;66.74;98910.84;5036713;28;20021;-74
2022/08/16 05:20:05;;;;;;;26.30;17.88;;;;;;;21.99;66.77;98893.63;5054306;28;20032;-75
2022/08/16 05:22:31;;;;;;;24.33;17.15;;;;;;;22.01;66.55;98891.97;5054339;28;20028;-75
2022/08/16 05:24:57;;;;;;;26.52;16.90;;;;;;;22.05;66.60;98885.41;5036165;28;20472;-74
2022/08/16 05:27:22;;;;;;;21.95;17.05;;;;;;;22.05;67.86;98894.75;5054049;28;20021;-75
2022/08/16 05:29:48;;;;;;;26.65;18.30;;;;;;;22.11;67.78;98884.50;5053654;28;20444;-75
2022/08/16 05:32:13;;;;;;;33.22;17.77;;;;;;;22.34;67.31;98885.00;5036826;28;20029;-75
2022/08/16 05:34:39;;;;;;;26.48;18.25;;;;;;;22.51;66.43;98889.63;5053864;28;20017;-75
2022/08/16 05:37:04;;;;;;;26.20;16.50;;;;;;;22.63;65.81;98882.53;5035996;28;20120;-74
2022/08/16 05:39:30;;;;;;;20.80;16.25;;;;;;;22.77;65.24;98886.38;5053260;28;20052;-75
2022/08/16 05:41:56;;;;;;;21.00;16.63;;;;;;;22.92;65.20;98892.63;5035388;28;20033;-75
2022/08/16 05:44:23;;;;;;;23.80;14.88;;;;;;;23.12;63.17;98901.25;5034588;28;20024;-75
2022/08/16 05:46:58;;;;;;;20.35;15.23;;;;;;;23.32;62.35;98907.03;5053618;28;20491;-74
2022/08/16 05:49:28;;;;;;;23.05;16.23;;;;;;;23.46;60.43;98888.81;5033362;28;20020;-75
2022/08/16 05:51:56;;;;;;;23.52;15.50;;;;;;;23.61;59.86;98888.56;5042925;28;20108;-74
2022/08/16 05:54:22;;;;;;;16.85;14.63;;;;;;;23.77;59.24;98890.66;5016265;28;20024;-74
2022/08/16 05:56:49;;;;;;;19.35;14.70;;;;;;;23.93;58.96;98887.06;5032497;28;20116;-75
2022/08/16 05:59:17;;;;;;;17.63;13.13;;;;;;;24.18;56.61;98886.53;5053325;28;20426;-75
2022/08/16 06:01:43;;;;;;;17.60;12.95;;;;;;;24.28;55.91;98875.31;5049934;28;20032;-75
2022/08/16 06:04:11;;;;;;;19.17;13.00;;;;;;;24.39;55.05;98875.88;5035663;28;20025;-75
2022/08/16 06:06:37;;;;;;;17.98;13.68;;;;;;;24.41;55.17;98873.38;5031572;28;20067;-75
2022/08/16 06:09:03;;;;;;;27.02;16.10;;;;;;;24.59;55.92;98883.53;5044279;28;20096;-75
2022/08/16 06:11:30;;;;;;;19.83;13.52;;;;;;;24.64;52.07;98885.88;5051654;28;20032;-81
2022/08/16 06:13:56;;;;;;;20.40;14.73;;;;;;;24.76;52.94;98890.06;5024863;28;20082;-73
2022/08/16 06:16:22;;;;;;;18.58;13.50;;;;;;;24.92;53.06;98890.13;5052964;28;20021;-74
2022/08/16 06:18:47;;;;;;;15.65;13.15;;;;;;;25.08;52.62;98895.00;5019628;28;20029;-75
2022/08/16 06:21:13;;;;;;;15.43;12.80;;;;;;;25.16;52.09;98889.09;5034076;28;20067;-75
2022/08/16 06:23:39;;;;;;;23.77;13.50;;;;;;;25.08;50.06;98882.75;5034350;28;20036;-73
2022/08/16 06:26:06;;;;;;;20.13;14.65;;;;;;;25.10;49.82;98883.09;5053094;28;20024;-74
2022/08/16 06:28:32;;;;;;;19.40;14.27;;;;;;;25.17;48.52;98865.75;5033720;28;20119;-73
2022/08/16 06:30:58;;;;;;;20.02;13.90;;;;;;;25.30;49.13;98871.53;5035285;28;20117;-77
2022/08/16 06:33:23;;;;;;;19.45;13.82;;;;;;;25.36;48.98;98869.75;5052929;28;20017;-75
2022/08/16 06:35:55;;;;;;;19.02;14.38;;;;;;;25.30;49.26;98871.53;5034266;28;20025;-74
2022/08/16 06:38:21;;;;;;;17.92;13.68;;;;;;;25.40;49.59;98851.66;5027190;28;20033;-76
2022/08/16 06:40:46;;;;;;;19.85;14.20;;;;;;;25.43;49.49;98850.75;5034081;28;20182;-75
2022/08/16 06:43:12;;;;;;;16.98;13.38;;;;;;;25.64;48.89;98850.16;5052522;28;20116;-75
2022/08/16 06:45:39;;;;;;;16.80;13.75;;;;;;;25.48;47.32;98845.25;5052711;28;20059;-76
2022/08/16 06:48:05;;;;;;;16.55;13.50;;;;;;;25.68;48.31;98855.78;5052680;28;20053;-73
2022/08/16 06:50:31;;;;;;;29.55;14.02;;;;;;;25.82;47.47;98854.53;5050740;28;20044;-75
2022/08/16 06:52:58;;;;;;;14.90;13.10;;;;;;;25.88;47.89;98858.47;5045951;28;20033;-73
2022/08/16 06:55:23;;;;;;;20.85;13.35;;;;;;;26.07;47.89;98848.06;5051699;28;20029;-76
2022/08/16 06:57:51;;;;;;;15.18;13.57;;;;;;;26.25;46.96;98843.03;5034420;28;20392;-74
2022/08/16 07:00:17;;;;;;;21.48;15.02;;;;;;;26.33;46.46;98838.69;5052670;28;20029;-74
2022/08/16 07:02:43;;;;;;;14.13;12.60;;;;;;;26.23;46.18;98837.75;5050765;28;20025;-77
2022/08/16 07:05:12;;;;;;;24.90;14.45;;;;;;;26.18;46.05;98842.00;5040967;28;20068;-76
2022/08/16 07:07:38;;;;;;;21.73;14.23;;;;;;;26.23;46.10;98832.03;5047847;28;20059;-76
2022/08/16 07:10:06;;;;;;;16.10;14.40;;;;;;;26.46;46.55;98827.22;5032236;28;20407;-76
2022/08/16 07:12:32;;;;;;;16.23;13.85;;;;;;;26.55;46.00;98812.19;5045531;28;20089;-75
2022/08/16 07:14:59;;;;;;;14.82;13.02;;;;;;;26.80;46.42;98822.00;5033321;28;20063;-75
2022/08/16 07:17:26;;;;;;;24.90;14.55;;;;;;;26.98;43.85;98838.63;5051252;28;20051;-76
2022/08/16 07:19:53;;;;;;;17.00;14.23;;;;;;;26.80;44.42;98839.22;5052469;28;20036;-76
2022/08/16 07:22:19;;;;;;;17.95;12.45;;;;;;;26.99;43.19;98841.00;5051939;28;20031;-76
2022/08/16 07:24:44;;;;;;;16.52;13.02;;;;;;;26.86;42.67;98829.56;5048559;28;20557;-76
2022/08/16 07:27:11;;;;;;;17.48;13.43;;;;;;;26.93;42.88;98836.31;5051700;28;20033;-76
2022/08/16 07:29:38;;;;;;;15.02;13.15;;;;;;;27.10;43.37;98828.34;5050359;28;20048;-73
2022/08/16 07:32:05;;;;;;;16.40;12.50;;;;;;;27.21;42.18;98836.56;5033675;28;20032;-74
2022/08/16 07:34:31;;;;;;;16.88;12.38;;;;;;;27.26;43.18;98839.63;5051435;28;20033;-73
2022/08/16 07:36:58;;;;;;;15.80;12.00;;;;;;;27.18;42.90;98844.06;5033693;28;20017;-74
2022/08/16 07:39:24;;;;;;;27.70;14.32;;;;;;;27.47;42.82;98845.88;5023350;28;20103;-73
2022/08/16 07:41:49;;;;;;;32.58;15.30;;;;;;;27.51;42.51;98846.53;5031768;28;20037;-74
2022/08/16 07:44:15;;;;;;;15.18;13.52;;;;;;;27.50;42.68;98849.88;5029961;28;20045;-73
2022/08/16 07:46:40;;;;;;;15.20;13.15;;;;;;;27.32;43.08;98845.59;5030616;28;20032;-73
2022/08/16 07:49:06;;;;;;;26.00;13.45;;;;;;;27.54;43.62;98845.66;5008253;28;20130;-72
2022/08/16 07:51:35;;;;;;;15.10;12.70;;;;;;;27.64;42.84;98846.50;5018062;28;20032;-72
2022/08/16 07:54:02;;;;;;;17.23;12.75;;;;;;;27.49;42.75;98851.16;5018792;28;20483;-72
2022/08/16 07:56:28;;;;;;;17.83;12.93;;;;;;;27.54;42.34;98851.38;5026331;28;20026;-71
2022/08/16 07:58:55;;;;;;;19.10;13.38;;;;;;;27.71;42.44;98845.44;5017565;28;20021;-72
2022/08/16 08:01:24;;;;;;;43.38;15.65;;;;;;;27.97;41.73;98848.13;5017309;28;20021;-72
2022/08/16 08:03:51;;;;;;;18.37;13.23;;;;;;;28.02;41.33;98839.69;5010783;28;20183;-71
2022/08/16 08:06:19;;;;;;;18.10;13.27;;;;;;;28.35;42.06;98837.66;5024763;28;20017;-72
2022/08/16 08:08:45;;;;;;;19.00;13.15;;;;;;;28.37;40.80;98833.03;5014078;28;20025;-74
2022/08/16 08:11:11;;;;;;;18.02;13.27;;;;;;;28.41;41.30;98827.91;5022407;28;20025;-73
2022/08/16 08:13:37;;;;;;;20.08;13.73;;;;;;;28.46;39.92;98840.88;5027795;28;20061;-71
2022/08/16 08:16:03;;;;;;;16.63;11.55;;;;;;;28.63;39.52;98838.53;5029873;28;20450;-73
2022/08/16 08:18:29;;;;;;;16.65;13.40;;;;;;;28.88;40.25;98839.56;5031387;28;20079;-72
2022/08/16 08:20:55;;;;;;;17.90;12.70;;;;;;;28.85;39.38;98835.56;5029401;28;20369;-73
2022/08/16 08:23:21;;;;;;;14.57;11.32;;;;;;;28.91;38.60;98832.06;5031131;28;20025;-75
2022/08/16 08:25:47;;;;;;;14.32;12.13;;;;;;;29.19;39.36;98827.09;5013575;28;20025;-72
2022/08/16 08:28:13;;;;;;;13.98;11.32;;;;;;;29.20;37.51;98825.84;5031578;28;20536;-72
2022/08/16 08:30:40;;;;;;;16.58;11.27;;;;;;;29.36;37.85;98821.81;5031567;28;20072;-76
2022/08/16 08:33:05;;;;;;;16.17;11.68;;;;;;;29.40;38.26;98818.78;5013058;28;20025;-72
2022/08/16 08:35:33;;;;;;;14.57;12.60;;;;;;;29.58;38.22;98831.63;5030526;28;20025;-73
2022/08/16 08:37:59;;;;;;;13.63;12.20;;;;;;;29.53;38.34;98835.94;5014016;28;20564;-73
2022/08/16 08:40:27;;;;;;;17.15;10.35;;;;;;;29.67;36.84;98832.38;5048952;28;20453;-73
2022/08/16 08:42:56;;;;;;;15.77;10.02;;;;;;;29.70;35.97;98830.63;5033241;28;20582;-73
2022/08/16 08:45:21;;;;;;;13.18;10.68;;;;;;;29.89;36.95;98821.94;5052400;28;20395;-74
2022/08/16 08:47:47;;;;;;;15.23;10.68;;;;;;;29.93;36.91;98816.81;5037776;28;20040;-73
2022/08/16 08:50:15;;;;;;;16.67;11.10;;;;;;;30.03;37.98;98815.47;5036085;28;20024;-76
2022/08/16 08:52:42;;;;;;;15.18;11.02;;;;;;;30.01;37.37;98815.16;5051371;28;20024;-71
2022/08/16 08:55:12;;;;;;;17.35;11.00;;;;;;;29.79;37.28;98819.06;5054494;28;20044;-71
2022/08/16 08:57:44;;;;;;;13.45;10.13;;;;;;;30.17;37.70;98816.91;5047480;28;20103;-71
2022/08/16 09:00:12;;;;;;;10.38;9.38;;;;;;;30.29;35.80;98820.06;5046506;28;20031;-71
2022/08/16 09:02:37;;;;;;;12.52;8.95;;;;;;;30.33;35.20;98814.91;5040073;28;20025;-71
2022/08/16 09:05:04;;;;;;;9.95;7.65;;;;;;;30.46;35.22;98803.94;5040297;28;20035;-71
2022/08/16 09:07:29;;;;;;;10.18;9.05;;;;;;;30.68;34.68;98812.34;5033094;28;20020;-71
2022/08/16 09:09:55;;;;;;;12.82;8.98;;;;;;;30.78;35.22;98820.94;5052125;28;20085;-71
2022/08/16 09:12:21;;;;;;;10.18;9.18;;;;;;;30.99;35.17;98807.47;5036203;28;20028;-72
2022/08/16 09:14:46;;;;;;;10.75;9.65;;;;;;;31.06;35.23;98804.19;5047890;28;20095;-73
2022/08/16 09:17:12;;;;;;;9.73;8.70;;;;;;;31.10;34.25;98809.78;5052625;28;20415;-72
2022/08/16 09:19:38;;;;;;;15.68;8.02;;;;;;;31.13;34.40;98816.66;5051407;28;20059;-71
2022/08/16 09:22:05;;;;;;;12.75;5.85;;;;;;;31.43;32.12;98810.97;5052999;28;20402;-72
2022/08/16 09:24:32;;;;;;;15.45;8.35;;;;;;;31.41;33.68;98804.88;5032646;28;20044;-72
2022/08/16 09:26:58;;;;;;;11.43;5.60;;;;;;;31.59;30.20;98792.34;5032951;28;20120;-72
2022/08/16 09:29:23;;;;;;;7.70;5.88;;;;;;;31.67;30.30;98802.22;5036667;28;20219;-72
2022/08/16 09:31:49;;;;;;;8.30;6.18;;;;;;;31.36;30.05;98794.81;5044318;28;20180;-72
2022/08/16 09:34:15;;;;;;;10.57;6.47;;;;;;;31.27;31.42;98800.72;5034588;28;20491;-72
2022/08/16 09:36:41;;;;;;;6.20;5.45;;;;;;;31.42;30.63;98794.94;5045774;28;20488;-72
2022/08/16 09:39:07;;;;;;;6.07;5.47;;;;;;;31.50;29.73;98788.28;5053855;28;20045;-72
2022/08/16 09:41:32;;;;;;;5.45;4.95;;;;;;;31.74;30.50;98781.63;5046969;28;20506;-72
2022/08/16 09:43:58;;;;;;;8.18;6.25;;;;;;;31.81;30.54;98788.31;5049480;28;20032;-72
2022/08/16 09:46:24;;;;;;;11.30;4.85;;;;;;;31.80;29.31;98793.31;5051386;28;20021;-72
2022/08/16 09:48:51;;;;;;;11.60;6.00;;;;;;;31.72;29.68;98786.28;5044635;28;20055;-72
2022/08/16 09:51:17;;;;;;;8.95;5.28;;;;;;;31.84;29.76;98787.28;5060207;28;20021;-72
2022/08/16 09:53:43;;;;;;;7.55;5.30;;;;;;;31.99;30.20;98790.19;5043132;28;20399;-73
2022/08/16 09:56:19;;;;;;;6.95;5.65;;;;;;;31.58;29.96;98782.91;5044693;28;20511;-72
2022/08/16 09:58:44;;;;;;;27.52;7.68;;;;;;;31.75;30.46;98785.28;5048809;28;20032;-73
2022/08/16 10:01:10;;;;;;;10.40;6.35;;;;;;;31.94;30.54;98771.44;5051461;28;20033;-72
2022/08/16 10:03:35;;;;;;;11.50;6.72;;;;;;;32.00;30.71;98778.13;5022388;28;20033;-72
2022/08/16 10:06:01;;;;;;;7.80;6.13;;;;;;;31.75;30.84;98767.94;5050376;28;20492;-72
2022/08/16 10:08:26;;;;;;;77.45;10.43;;;;;;;31.85;30.89;98760.78;5048998;28;20009;-73
2022/08/16 10:13:36;;;;;;;10.80;6.30;;;;;;;32.24;30.42;98762.72;5051493;28;20094;-73
2022/08/16 10:16:01;;;;;;;7.25;6.30;;;;;;;32.55;31.11;98775.78;5047684;28;20455;-77
2022/08/16 10:18:29;;;;;;;10.18;6.95;;;;;;;32.55;31.15;98775.78;5041305;28;20377;-72
2022/08/16 10:20:57;;;;;;;10.27;7.22;;;;;;;32.49;30.50;98767.03;5042620;28;20112;-75
2022/08/16 10:23:23;;;;;;;8.15;7.35;;;;;;;32.33;32.47;98764.69;5053486;28;20048;-77
2022/08/16 10:25:49;;;;;;;7.70;6.90;;;;;;;32.40;33.32;98767.19;5034687;28;20063;-73
2022/08/16 10:28:15;;;;;;;6.68;6.00;;;;;;;32.33;31.41;98753.88;5035349;28;20021;-74
2022/08/16 10:30:42;;;;;;;6.93;6.22;;;;;;;32.06;31.42;98750.09;5034394;28;20040;-74
2022/08/16 10:33:10;;;;;;;10.38;6.78;;;;;;;32.14;31.76;98759.13;5037620;28;20130;-75
2022/08/16 10:35:35;;;;;;;7.35;6.65;;;;;;;32.27;31.47;98752.22;5048517;28;20160;-75
2022/08/16 10:38:01;;;;;;;10.82;6.50;;;;;;;32.77;31.89;98757.13;5040999;28;20116;-75
2022/08/16 10:40:27;;;;;;;7.18;6.47;;;;;;;32.46;32.14;98756.47;5047328;28;20045;-76
2022/08/16 10:42:53;;;;;;;7.47;6.80;;;;;;;32.23;31.89;98755.34;5039292;28;20048;-77
2022/08/16 10:45:19;;;;;;;5.93;5.32;;;;;;;32.25;31.74;98755.63;5044431;28;20028;-73
2022/08/16 10:47:44;;;;;;;8.63;6.30;;;;;;;32.22;30.13;98747.97;5047227;28;20111;-74
2022/08/16 10:50:11;;;;;;;7.30;6.22;;;;;;;32.65;30.31;98749.63;5049300;28;20033;-74
2022/08/16 10:52:37;;;;;;;7.05;6.35;;;;;;;32.82;30.35;98744.81;5049209;28;20079;-77
2022/08/16 10:55:03;;;;;;;8.43;6.60;;;;;;;32.87;30.39;98755.69;5049774;28;20028;-73
2022/08/16 10:57:31;;;;;;;18.50;6.88;;;;;;;33.12;29.58;98755.47;5050278;28;20033;-72
2022/08/16 10:59:57;;;;;;;9.98;5.72;;;;;;;33.31;29.26;98759.63;5050016;28;21894;-74
2022/08/16 11:02:24;;;;;;;8.48;5.95;;;;;;;33.65;30.45;98759.19;5046627;28;20028;-73
2022/08/16 11:04:50;;;;;;;12.95;6.32;;;;;;;33.78;28.45;98749.28;5041898;28;20021;-73
2022/08/16 11:07:16;;;;;;;9.25;6.07;;;;;;;33.86;28.25;98756.19;5048911;28;20138;-73
2022/08/16 11:09:42;;;;;;;9.68;6.05;;;;;;;33.50;28.21;98747.75;5047987;28;20032;-73
2022/08/16 11:12:08;;;;;;;10.10;5.97;;;;;;;33.63;27.56;98756.00;5049457;28;20032;-73
2022/08/16 11:14:34;;;;;;;12.07;5.70;;;;;;;33.37;27.92;98758.91;5050430;28;20060;-73
2022/08/16 11:17:04;;;;;;;40.00;8.07;;;;;;;33.35;28.45;98755.69;5047745;28;20530;-74
2022/08/16 11:19:31;;;;;;;6.63;5.22;;;;;;;33.17;27.69;98752.63;5046223;28;20695;-73